createdAt,value
2023-03-04T00:01:37.226Z,69.03
2023-03-04T00:04:08.509Z,69.35
2023-03-04T00:09:21.049Z,69.07
2023-03-04T00:11:51.678Z,69.23
2023-03-04T00:14:21.089Z,69.42
2023-03-04T00:16:50.441Z,68.98
2023-03-04T00:19:22.104Z,69.34
2023-03-04T00:21:50.843Z,69.29
2023-03-04T00:24:18.512Z,69.31
2023-03-04T00:26:47.871Z,69.31
2023-03-04T00:29:15.442Z,69.35
2023-03-04T00:31:42.834Z,69.14
2023-03-04T00:34:09.987Z,69.23
2023-03-04T00:36:42.915Z,69.34
2023-03-04T00:39:12.273Z,69.38
2023-03-04T00:41:42.312Z,69.34
2023-03-04T00:44:18.850Z,69.44
2023-03-04T00:46:48.258Z,69.42
2023-03-04T00:49:16.500Z,69.53
2023-03-04T00:51:44.276Z,69.63
2023-03-04T00:54:12.359Z,69.62
2023-03-04T00:56:40.765Z,69.43
2023-03-04T00:59:08.289Z,69.60
2023-03-04T01:01:36.752Z,69.33
2023-03-04T01:04:04.657Z,69.63
2023-03-04T01:06:32.790Z,69.62
2023-03-04T01:09:00.908Z,69.63
2023-03-04T01:11:28.224Z,69.55
2023-03-04T01:13:56.521Z,69.76
2023-03-04T01:16:24.650Z,69.53
2023-03-04T01:19:50.071Z,69.63
2023-03-04T01:22:19.299Z,69.62
2023-03-04T01:24:49.123Z,69.50
2023-03-04T01:27:18.397Z,69.63
2023-03-04T01:29:48.023Z,69.65
2023-03-04T01:32:16.697Z,69.79
2023-03-04T01:34:45.048Z,69.85
2023-03-04T01:37:14.206Z,69.68
2023-03-04T01:39:41.782Z,69.96
2023-03-04T01:42:28.449Z,69.73
2023-03-04T01:44:55.522Z,69.93
2023-03-04T01:47:26.370Z,69.65
2023-03-04T01:49:55.681Z,69.69
2023-03-04T01:52:26.265Z,69.66
2023-03-04T01:54:54.068Z,69.89
2023-03-04T01:57:23.330Z,70.05
2023-03-04T02:00:09.708Z,69.66
2023-03-04T02:02:41.752Z,69.75
2023-03-04T02:05:10.290Z,70.12
2023-03-04T02:07:38.188Z,69.99
2023-03-04T02:10:06.300Z,69.84
2023-03-04T02:12:35.576Z,69.72
2023-03-04T02:15:03.827Z,69.86
2023-03-04T02:17:33.062Z,69.69
2023-03-04T02:20:13.101Z,69.96
2023-03-04T02:22:43.942Z,69.94
2023-03-04T02:25:14.352Z,69.73
2023-03-04T02:27:42.206Z,69.83
2023-03-04T02:30:11.506Z,70.05
2023-03-04T02:32:39.399Z,70.21
2023-03-04T02:35:07.583Z,69.87
2023-03-04T02:37:34.871Z,70.00
2023-03-04T02:40:02.738Z,70.16
2023-03-04T02:42:29.756Z,70.13
2023-03-04T02:45:00.995Z,70.11
2023-03-04T02:47:30.063Z,70.26
2023-03-04T02:49:59.925Z,70.09
2023-03-04T02:52:27.804Z,70.13
2023-03-04T02:54:55.853Z,70.07
2023-03-04T02:57:23.644Z,70.16
2023-03-04T02:59:55.008Z,70.18
2023-03-04T03:02:28.292Z,70.10
2023-03-04T03:04:55.850Z,70.24
2023-03-04T03:07:23.570Z,70.01
2023-03-04T03:09:50.948Z,70.11
2023-03-04T03:12:19.302Z,70.27
2023-03-04T03:14:47.477Z,70.25
2023-03-04T03:17:18.502Z,70.08
2023-03-04T03:19:47.567Z,70.20
2023-03-04T03:22:15.727Z,70.29
2023-03-04T03:24:43.757Z,70.22
2023-03-04T03:27:11.658Z,70.40
2023-03-04T03:29:40.748Z,70.25
2023-03-04T03:32:08.963Z,70.29
2023-03-04T03:34:36.346Z,70.42
2023-03-04T03:37:03.996Z,70.39
2023-03-04T03:39:31.674Z,70.41
2023-03-04T03:42:00.367Z,70.45
2023-03-04T03:44:28.859Z,70.52
2023-03-04T03:46:56.237Z,70.39
2023-03-04T03:49:23.516Z,70.43
2023-03-04T03:51:50.620Z,70.49
2023-03-04T03:54:17.943Z,70.14
2023-03-04T03:56:45.748Z,70.44
2023-03-04T03:59:13.257Z,70.33
2023-03-04T04:01:40.414Z,70.21
2023-03-04T04:04:07.809Z,70.26
2023-03-04T04:06:35.274Z,70.39
2023-03-04T04:09:03.339Z,70.19
2023-03-04T04:11:30.895Z,70.00
2023-03-04T04:13:58.627Z,70.18
2023-03-04T04:16:26.579Z,70.40
2023-03-04T04:18:54.510Z,70.19
2023-03-04T04:21:22.568Z,70.28
2023-03-04T04:23:50.466Z,70.20
2023-03-04T04:26:18.314Z,70.18
2023-03-04T04:28:45.596Z,70.27
2023-03-04T04:31:13.167Z,70.16
2023-03-04T04:33:41.140Z,70.37
2023-03-04T04:36:11.064Z,70.25
2023-03-04T04:38:38.820Z,70.28
2023-03-04T04:41:06.097Z,70.24
2023-03-04T04:43:33.657Z,70.38
2023-03-04T04:46:01.123Z,70.11
2023-03-04T04:48:28.444Z,70.41
2023-03-04T04:50:56.758Z,70.10
2023-03-04T04:53:24.387Z,70.14
2023-03-04T04:55:51.790Z,70.14
2023-03-04T04:58:19.746Z,70.27
2023-03-04T05:00:47.300Z,69.93
2023-03-04T05:03:18.291Z,70.20
2023-03-04T05:05:47.424Z,69.83
2023-03-04T05:08:14.985Z,70.10
2023-03-04T05:10:42.536Z,69.93
2023-03-04T05:13:09.990Z,70.00
2023-03-04T05:15:37.979Z,70.21
2023-03-04T05:18:05.652Z,69.91
2023-03-04T05:20:33.023Z,69.89
2023-03-04T05:23:00.267Z,70.08
2023-03-04T05:25:27.527Z,70.25
2023-03-04T05:27:54.746Z,69.98
2023-03-04T05:30:21.857Z,69.88
2023-03-04T05:32:48.769Z,70.06
2023-03-04T05:35:15.681Z,70.21
2023-03-04T05:37:42.688Z,69.60
2023-03-04T05:40:09.999Z,70.19
2023-03-04T05:42:39.050Z,70.10
2023-03-04T05:45:08.227Z,70.16
2023-03-04T05:47:37.173Z,70.35
2023-03-04T05:50:05.516Z,70.26
2023-03-04T05:52:32.964Z,70.25
2023-03-04T05:55:02.149Z,70.04
2023-03-04T05:57:32.423Z,70.15
2023-03-04T06:00:00.767Z,70.17
2023-03-04T06:02:29.131Z,70.00
2023-03-04T06:04:58.090Z,70.54
2023-03-04T06:07:24.873Z,70.50
2023-03-04T06:09:52.418Z,70.17
2023-03-04T06:12:19.449Z,70.36
2023-03-04T06:14:49.093Z,70.06
2023-03-04T06:17:16.587Z,70.23
2023-03-04T06:19:43.701Z,70.35
2023-03-04T06:22:11.080Z,70.21
2023-03-04T06:24:38.166Z,69.75
2023-03-04T06:27:05.848Z,69.85
2023-03-04T06:29:33.755Z,69.78
2023-03-04T06:32:00.714Z,69.83
2023-03-04T06:34:28.426Z,69.78
2023-03-04T06:36:55.484Z,69.96
2023-03-04T06:39:22.361Z,69.65
2023-03-04T06:41:49.249Z,70.01
2023-03-04T06:44:16.719Z,69.79
2023-03-04T06:46:43.816Z,70.09
2023-03-04T06:49:10.903Z,70.23
2023-03-04T06:51:37.827Z,70.01
2023-03-04T06:54:04.757Z,69.47
2023-03-04T06:56:31.606Z,69.68
2023-03-04T06:58:58.546Z,69.72
2023-03-04T07:01:26.632Z,69.67
2023-03-04T07:03:53.835Z,69.44
2023-03-04T07:06:22.739Z,69.58
2023-03-04T07:08:50.021Z,69.33
2023-03-04T07:11:18.607Z,69.49
2023-03-04T07:13:45.940Z,69.17
2023-03-04T07:16:13.764Z,69.53
2023-03-04T07:18:41.825Z,69.71
2023-03-04T07:21:08.782Z,69.42
2023-03-04T07:23:36.258Z,69.68
2023-03-04T07:26:03.495Z,69.67
2023-03-04T07:28:30.381Z,69.74
2023-03-04T07:30:57.222Z,69.71
2023-03-04T07:33:24.054Z,69.63
2023-03-04T07:35:59.085Z,69.58
2023-03-04T07:38:26.222Z,69.48
2023-03-04T07:40:59.660Z,69.32
2023-03-04T07:43:28.798Z,69.30
2023-03-04T07:45:59.545Z,69.35
2023-03-04T07:48:26.611Z,69.41
2023-03-04T07:51:11.100Z,69.45
2023-03-04T07:53:38.974Z,69.55
2023-03-04T07:56:06.670Z,69.40
2023-03-04T07:58:33.933Z,69.69
2023-03-04T08:01:03.141Z,69.63
2023-03-04T08:03:30.098Z,69.71
2023-03-04T08:05:57.086Z,69.89
2023-03-04T08:08:23.895Z,69.73
2023-03-04T08:10:50.762Z,69.79
2023-03-04T08:13:17.639Z,69.97
2023-03-04T08:15:44.439Z,69.70
2023-03-04T08:18:11.326Z,69.75
2023-03-04T08:20:41.275Z,69.63
2023-03-04T08:23:09.019Z,69.74
2023-03-04T08:25:39.077Z,69.66
2023-03-04T08:28:06.995Z,69.61
2023-03-04T08:30:37.204Z,69.69
2023-03-04T08:33:07.612Z,69.72
2023-03-04T08:35:39.925Z,69.77
2023-03-04T08:38:07.219Z,69.77
2023-03-04T08:40:34.068Z,69.89
2023-03-04T08:43:01.286Z,69.88
2023-03-04T08:45:28.377Z,69.69
2023-03-04T08:47:55.249Z,69.51
2023-03-04T08:50:22.618Z,69.68
2023-03-04T08:52:49.743Z,69.51
2023-03-04T08:55:16.761Z,69.20
2023-03-04T08:57:43.781Z,69.35
2023-03-04T09:00:11.222Z,69.15
2023-03-04T09:02:38.092Z,68.79
2023-03-04T09:05:05.624Z,68.64
2023-03-04T09:07:32.482Z,68.56
2023-03-04T09:09:59.620Z,68.46
2023-03-04T09:12:26.510Z,68.45
2023-03-04T09:15:09.800Z,68.54
2023-03-04T09:17:37.870Z,68.66
2023-03-04T09:20:08.809Z,69.02
2023-03-04T09:22:37.180Z,69.20
2023-03-04T09:25:04.326Z,69.16
2023-03-04T09:27:31.276Z,69.13
2023-03-04T09:29:58.212Z,69.21
2023-03-04T09:32:25.025Z,69.38
2023-03-04T09:34:51.893Z,69.21
2023-03-04T09:37:18.866Z,69.42
2023-03-04T09:39:46.000Z,69.57
2023-03-04T09:42:16.838Z,69.46
2023-03-04T09:44:45.991Z,68.78
2023-03-04T09:47:15.748Z,69.02
2023-03-04T09:49:51.037Z,68.06
2023-03-04T09:52:21.267Z,67.88
2023-03-04T09:54:54.112Z,68.13
2023-03-04T09:57:38.466Z,67.99
2023-03-04T10:00:23.598Z,67.74
2023-03-04T10:03:08.409Z,67.95
2023-03-04T10:06:02.975Z,67.52
2023-03-04T10:08:47.576Z,67.60
2023-03-04T10:11:16.779Z,67.82
2023-03-04T10:13:50.433Z,67.67
2023-03-04T10:16:19.864Z,68.04
2023-03-04T10:18:58.973Z,67.87
2023-03-04T10:21:33.878Z,68.20
2023-03-04T10:24:05.738Z,67.92
2023-03-04T10:26:33.624Z,68.21
2023-03-04T10:29:03.101Z,67.57
2023-03-04T10:31:39.060Z,67.91
2023-03-04T10:34:07.270Z,67.74
2023-03-04T10:36:44.328Z,67.78
2023-03-04T10:39:13.000Z,67.68
2023-03-04T10:41:45.653Z,67.81
2023-03-04T10:44:17.201Z,68.00
2023-03-04T10:46:45.359Z,67.78
2023-03-04T10:49:14.894Z,67.33
2023-03-04T10:51:43.473Z,68.00
2023-03-04T10:54:20.619Z,67.41
2023-03-04T10:56:55.756Z,67.34
2023-03-04T10:59:25.542Z,67.83
2023-03-04T11:02:01.828Z,67.58
2023-03-04T11:04:33.667Z,67.63
2023-03-04T11:07:00.777Z,67.97
2023-03-04T11:09:28.897Z,67.82
2023-03-04T11:11:59.311Z,67.67
2023-03-04T11:14:39.880Z,67.87
2023-03-04T11:17:17.841Z,67.69
2023-03-04T11:19:47.430Z,67.67
2023-03-04T11:22:18.526Z,68.23
2023-03-04T11:24:47.616Z,68.29
2023-03-04T11:27:33.188Z,68.10
2023-03-04T11:30:06.261Z,68.36
2023-03-04T11:32:41.622Z,68.11
2023-03-04T11:35:15.992Z,67.93
2023-03-04T11:37:42.926Z,68.46
2023-03-04T11:40:16.461Z,68.29
2023-03-04T11:42:49.455Z,68.26
2023-03-04T11:45:28.139Z,68.49
2023-03-04T11:48:01.862Z,68.52
2023-03-04T11:50:35.214Z,68.31
2023-03-04T11:53:09.182Z,68.19
2023-03-04T11:55:39.086Z,68.21
2023-03-04T11:58:12.387Z,68.41
2023-03-04T12:00:53.171Z,68.26
2023-03-04T12:03:39.293Z,68.41
2023-03-04T12:06:06.184Z,68.72
2023-03-04T12:08:45.105Z,68.81
2023-03-04T12:11:18.204Z,68.62
2023-03-04T12:13:51.200Z,68.59
2023-03-04T12:16:38.634Z,68.63
2023-03-04T12:19:20.542Z,68.56
2023-03-04T12:21:47.304Z,68.62
2023-03-04T12:24:14.105Z,68.79
2023-03-04T12:26:47.459Z,68.74
2023-03-04T12:29:33.108Z,68.79
2023-03-04T12:32:38.749Z,68.67
2023-03-04T12:35:16.240Z,68.86
2023-03-04T12:37:49.198Z,69.01
2023-03-04T12:40:22.082Z,68.94
2023-03-04T12:42:58.412Z,68.99
2023-03-04T12:45:48.342Z,69.15
2023-03-04T12:48:24.925Z,69.15
2023-03-04T12:51:07.266Z,68.97
2023-03-04T12:54:06.208Z,69.00
2023-03-04T12:56:47.160Z,69.39
2023-03-04T13:02:05.592Z,69.36
2023-03-04T13:04:51.693Z,69.24
2023-03-04T13:07:28.163Z,69.28
2023-03-04T13:10:15.253Z,69.55
2023-03-04T13:12:50.144Z,69.47
2023-03-04T13:15:21.696Z,69.50
2023-03-04T13:18:08.334Z,69.71
2023-03-04T13:20:37.870Z,69.52
2023-03-04T13:23:13.910Z,69.87
2023-03-04T13:25:45.426Z,69.66
2023-03-04T13:28:18.816Z,69.72
2023-03-04T13:30:57.284Z,69.81
2023-03-04T13:33:24.492Z,70.02
2023-03-04T13:35:51.715Z,69.90
2023-03-04T13:38:28.324Z,69.97
2023-03-04T13:41:14.262Z,70.27
2023-03-04T13:43:42.648Z,70.28
2023-03-04T13:46:19.012Z,70.18
2023-03-04T13:48:53.686Z,70.46
2023-03-04T13:51:31.296Z,70.50
2023-03-04T13:54:05.235Z,70.43
2023-03-04T13:56:41.929Z,70.52
2023-03-04T13:59:08.864Z,70.61
2023-03-04T14:01:41.854Z,70.69
2023-03-04T14:04:11.773Z,70.73
2023-03-04T14:06:44.225Z,70.82
2023-03-04T14:09:34.958Z,71.06
2023-03-04T14:12:04.295Z,70.94
2023-03-04T14:14:46.011Z,70.78
2023-03-04T14:17:31.380Z,70.90
2023-03-04T14:19:59.416Z,70.69
2023-03-04T14:22:41.987Z,71.08
2023-03-04T14:25:23.803Z,70.62
2023-03-04T14:27:51.834Z,70.78
2023-03-04T14:30:31.897Z,70.72
2023-03-04T14:33:07.769Z,71.03
2023-03-04T14:35:34.894Z,70.94
2023-03-04T14:38:05.146Z,70.73
2023-03-04T14:40:36.033Z,70.96
2023-03-04T14:43:10.897Z,71.02
2023-03-04T14:45:39.772Z,70.83
2023-03-04T14:48:07.016Z,71.19
2023-03-04T14:50:36.715Z,70.78
2023-03-04T14:53:13.349Z,70.92
2023-03-04T14:55:40.319Z,70.97
2023-03-04T14:58:15.930Z,70.86
2023-03-04T15:00:43.343Z,71.13
2023-03-04T15:03:22.590Z,70.87
2023-03-04T15:05:49.535Z,71.21
2023-03-04T15:08:25.131Z,71.14
2023-03-04T15:11:00.275Z,70.87
2023-03-04T15:13:41.147Z,71.13
2023-03-04T15:16:12.662Z,71.34
2023-03-04T15:18:40.253Z,70.96
2023-03-04T15:21:27.060Z,71.41
2023-03-04T15:23:56.544Z,71.09
2023-03-04T15:26:23.768Z,71.21
2023-03-04T15:28:50.606Z,71.74
2023-03-04T15:31:21.816Z,71.46
2023-03-04T15:33:48.904Z,71.28
2023-03-04T15:36:18.335Z,71.56
2023-03-04T15:38:49.288Z,71.11
2023-03-04T15:41:20.773Z,71.37
2023-03-04T15:43:47.708Z,71.65
2023-03-04T15:46:19.786Z,71.38
2023-03-04T15:48:47.229Z,71.55
2023-03-04T15:51:21.120Z,71.72
2023-03-04T15:53:54.467Z,71.54
2023-03-04T15:56:23.366Z,71.63
2023-03-04T15:58:54.633Z,71.61
2023-03-04T16:01:22.074Z,71.68
2023-03-04T16:03:51.629Z,71.54
2023-03-04T16:06:25.005Z,71.60
2023-03-04T16:08:52.540Z,71.30
2023-03-04T16:11:24.484Z,71.44
2023-03-04T16:13:56.336Z,71.56
2023-03-04T16:16:25.277Z,71.50
2023-03-04T16:18:54.575Z,71.05
2023-03-04T16:21:23.473Z,71.41
2023-03-04T16:23:51.597Z,71.68
2023-03-04T16:26:20.426Z,71.74
2023-03-04T16:28:48.071Z,71.57
2023-03-04T16:31:15.336Z,71.42
2023-03-04T16:33:45.754Z,71.24
2023-03-04T16:36:21.083Z,71.26
2023-03-04T16:38:48.884Z,71.72
2023-03-04T16:41:17.266Z,71.22
2023-03-04T16:43:46.588Z,71.22
2023-03-04T16:46:15.573Z,71.24
2023-03-04T16:48:42.916Z,72.00
2023-03-04T16:51:15.304Z,71.77
2023-03-04T16:53:50.224Z,71.78
2023-03-04T16:56:17.742Z,71.93
2023-03-04T16:58:45.737Z,71.45
2023-03-04T17:01:20.042Z,71.45
2023-03-04T17:03:47.697Z,71.46
2023-03-04T17:06:18.468Z,71.95
2023-03-04T17:08:52.435Z,71.71
2023-03-04T17:11:21.787Z,71.54
2023-03-04T17:13:49.527Z,71.55
2023-03-04T17:16:17.880Z,71.79
2023-03-04T17:18:47.751Z,71.95
2023-03-04T17:21:18.598Z,71.86
2023-03-04T17:23:45.740Z,71.39
2023-03-04T17:26:13.707Z,71.89
2023-03-04T17:28:40.867Z,71.81
2023-03-04T17:31:17.063Z,71.93
2023-03-04T17:33:46.707Z,71.91
2023-03-04T17:36:16.662Z,71.87
2023-03-04T17:38:44.308Z,71.76
2023-03-04T17:41:17.707Z,72.17
2023-03-04T17:43:49.531Z,71.92
2023-03-04T17:46:19.268Z,71.75
2023-03-04T17:48:46.533Z,71.75
2023-03-04T17:51:33.966Z,72.15
2023-03-04T17:54:04.627Z,71.66
2023-03-04T17:57:01.643Z,72.29
2023-03-04T17:59:29.919Z,72.11
2023-03-04T18:01:57.332Z,72.12
2023-03-04T18:04:24.627Z,72.24
2023-03-04T18:06:51.796Z,72.36
2023-03-04T18:09:19.868Z,71.89
2023-03-04T18:11:48.699Z,72.48
2023-03-04T18:14:16.158Z,72.38
2023-03-04T18:16:44.457Z,71.92
2023-03-04T18:19:12.200Z,71.90
2023-03-04T18:21:39.508Z,72.21
2023-03-04T18:24:10.105Z,72.13
2023-03-04T18:26:37.257Z,72.10
2023-03-04T18:29:06.151Z,71.92
2023-03-04T18:31:48.282Z,71.90
2023-03-04T18:34:15.706Z,72.34
2023-03-04T18:36:45.511Z,72.21
2023-03-04T18:39:15.144Z,72.04
2023-03-04T18:41:42.324Z,72.29
2023-03-04T18:44:11.703Z,72.21
2023-03-04T18:46:43.031Z,72.18
2023-03-04T18:49:10.688Z,72.49
2023-03-04T18:51:49.884Z,72.60
2023-03-04T18:54:17.110Z,72.32
2023-03-04T18:56:50.715Z,72.52
2023-03-04T18:59:23.375Z,72.22
2023-03-04T19:01:51.356Z,72.58
2023-03-04T19:04:22.854Z,72.68
2023-03-04T19:06:49.785Z,72.38
2023-03-04T19:09:16.628Z,72.04
2023-03-04T19:11:43.538Z,72.28
2023-03-04T19:14:11.829Z,72.04
2023-03-04T19:16:40.002Z,71.82
2023-03-04T19:19:07.355Z,72.48
2023-03-04T19:21:45.043Z,72.48
2023-03-04T19:24:12.188Z,72.60
2023-03-04T19:26:44.606Z,72.05
2023-03-04T19:29:11.807Z,72.03
2023-03-04T19:31:41.158Z,72.03
2023-03-04T19:34:12.829Z,72.43
2023-03-04T19:36:41.473Z,72.11
2023-03-04T19:39:09.469Z,72.49
2023-03-04T19:41:37.498Z,72.37
2023-03-04T19:44:05.249Z,72.33
2023-03-04T19:46:32.523Z,71.79
2023-03-04T19:49:01.712Z,71.65
2023-03-04T19:51:29.419Z,71.82
2023-03-04T19:53:56.590Z,72.40
2023-03-04T19:56:23.999Z,72.12
2023-03-04T19:58:53.688Z,72.08
2023-03-04T20:01:28.530Z,72.10
2023-03-04T20:03:57.080Z,72.18
2023-03-04T20:06:24.381Z,72.08
2023-03-04T20:08:51.547Z,72.03
2023-03-04T20:11:18.656Z,71.74
2023-03-04T20:13:47.353Z,72.04
2023-03-04T20:16:15.156Z,71.99
2023-03-04T20:18:42.840Z,72.21
2023-03-04T20:21:10.232Z,71.93
2023-03-04T20:23:37.320Z,72.11
2023-03-04T20:26:04.617Z,72.03
2023-03-04T20:28:31.824Z,72.33
2023-03-04T20:31:11.797Z,72.16
2023-03-04T20:33:39.097Z,72.47
2023-03-04T20:36:06.045Z,72.33
2023-03-04T20:38:33.207Z,72.16
2023-03-04T20:41:00.115Z,72.47
2023-03-04T20:43:28.911Z,72.51
2023-03-04T20:45:55.924Z,72.12
2023-03-04T20:48:22.951Z,72.04
2023-03-04T20:50:49.968Z,72.10
2023-03-04T20:53:19.494Z,72.08
2023-03-04T20:55:46.444Z,72.03
2023-03-04T20:58:13.327Z,72.35
2023-03-04T21:00:40.681Z,72.07
2023-03-04T21:03:07.551Z,71.73
2023-03-04T21:05:34.390Z,71.93
2023-03-04T21:08:01.295Z,72.06
2023-03-04T21:10:28.305Z,72.01
2023-03-04T21:12:55.152Z,72.20
2023-03-04T21:15:22.885Z,72.38
2023-03-04T21:17:49.935Z,72.34
2023-03-04T21:20:16.801Z,72.12
2023-03-04T21:22:43.828Z,72.28
2023-03-04T21:25:10.982Z,71.95
2023-03-04T21:27:42.770Z,72.08
2023-03-04T21:30:11.475Z,71.98
2023-03-04T21:32:39.424Z,72.04
2023-03-04T21:35:06.592Z,72.22
2023-03-04T21:37:33.616Z,72.08
2023-03-04T21:40:02.432Z,72.10
2023-03-04T21:42:29.998Z,72.12
2023-03-04T21:44:57.538Z,72.24
2023-03-04T21:47:24.382Z,72.11
2023-03-04T21:49:57.068Z,72.18
2023-03-04T21:52:24.215Z,72.34
2023-03-04T21:54:51.114Z,72.17
2023-03-04T21:57:18.753Z,72.24
2023-03-04T21:59:45.878Z,72.04
2023-03-04T22:02:16.938Z,72.16
2023-03-04T22:04:44.082Z,71.79
2023-03-04T22:07:11.095Z,72.16
2023-03-04T22:09:38.342Z,72.10
2023-03-04T22:12:05.413Z,71.92
2023-03-04T22:14:32.995Z,72.02
2023-03-04T22:16:59.942Z,72.12
2023-03-04T22:19:30.113Z,72.08
2023-03-04T22:21:57.088Z,72.02
2023-03-04T22:24:24.047Z,72.34
2023-03-04T22:26:50.824Z,72.27
2023-03-04T22:29:17.711Z,71.95
2023-03-04T22:31:45.351Z,71.97
2023-03-04T22:34:13.413Z,71.86
2023-03-04T22:36:41.434Z,72.09
2023-03-04T22:39:09.667Z,72.04
2023-03-04T22:41:37.329Z,72.34
2023-03-04T22:44:06.328Z,72.19
2023-03-04T22:46:34.383Z,72.06
2023-03-04T22:49:04.891Z,72.03
2023-03-04T22:51:32.142Z,72.17
2023-03-04T22:53:59.040Z,72.12
2023-03-04T22:56:26.134Z,72.46
2023-03-04T22:58:53.059Z,72.14
2023-03-04T23:01:20.153Z,72.33
2023-03-04T23:03:48.311Z,71.88
2023-03-04T23:06:22.936Z,72.18
2023-03-04T23:08:51.834Z,71.88
2023-03-04T23:11:21.202Z,71.71
2023-03-04T23:13:48.675Z,72.04
2023-03-04T23:16:15.730Z,72.04
2023-03-04T23:18:43.743Z,72.08
2023-03-04T23:21:17.072Z,72.01
2023-03-04T23:23:43.901Z,72.32
2023-03-04T23:26:22.387Z,72.11
2023-03-04T23:28:49.475Z,72.38
2023-03-04T23:31:16.629Z,72.18
2023-03-04T23:33:46.043Z,72.19
2023-03-04T23:36:15.293Z,72.16
2023-03-04T23:38:43.195Z,72.24
2023-03-04T23:41:20.603Z,72.28
2023-03-04T23:43:49.524Z,72.10
2023-03-04T23:46:16.442Z,72.23
2023-03-04T23:48:46.465Z,72.36
2023-03-04T23:51:15.008Z,71.99
2023-03-04T23:53:42.354Z,72.17
2023-03-04T23:56:17.257Z,72.00
2023-03-04T23:58:44.874Z,71.88
